createdAt,value
2022-11-17T00:02:12.150Z,8.20
2022-11-17T00:04:38.993Z,8.20
2022-11-17T00:07:05.818Z,8.20
2022-11-17T00:09:32.618Z,8.20
2022-11-17T00:12:22.333Z,8.20
2022-11-17T00:14:49.692Z,8.20
2022-11-17T00:17:16.515Z,8.20
2022-11-17T00:20:01.823Z,8.20
2022-11-17T00:22:32.229Z,8.30
2022-11-17T00:24:59.449Z,8.30
2022-11-17T00:27:26.336Z,8.30
2022-11-17T00:29:53.158Z,8.30
2022-11-17T00:32:38.310Z,8.30
2022-11-17T00:35:06.651Z,8.20
2022-11-17T00:37:37.169Z,8.30
2022-11-17T00:40:07.970Z,8.30
2022-11-17T00:42:34.745Z,8.30
2022-11-17T00:45:01.515Z,8.30
2022-11-17T00:47:28.281Z,8.30
2022-11-17T00:49:55.111Z,8.30
2022-11-17T00:52:22.012Z,8.30
2022-11-17T00:54:49.077Z,8.20
2022-11-17T00:57:15.840Z,8.20
2022-11-17T00:59:42.687Z,8.20
2022-11-17T01:02:09.450Z,8.20
2022-11-17T01:04:36.246Z,8.20
2022-11-17T01:07:03.184Z,8.20
2022-11-17T01:09:30.066Z,8.20
2022-11-17T01:11:56.879Z,8.20
2022-11-17T01:14:29.158Z,8.20
2022-11-17T01:16:56.637Z,8.20
2022-11-17T01:19:24.425Z,8.20
2022-11-17T01:21:51.288Z,8.20
2022-11-17T01:24:18.300Z,8.20
2022-11-17T01:26:46.147Z,8.20
2022-11-17T01:29:16.960Z,8.20
2022-11-17T01:31:45.007Z,8.20
2022-11-17T01:34:12.609Z,8.20
2022-11-17T01:37:00.325Z,8.20
2022-11-17T01:39:28.463Z,8.20
2022-11-17T01:41:55.885Z,8.20
2022-11-17T01:44:58.470Z,8.20
2022-11-17T01:47:31.675Z,8.20
2022-11-17T01:50:12.028Z,8.20
2022-11-17T01:52:41.150Z,8.20
2022-11-17T01:55:10.673Z,8.20
2022-11-17T01:57:50.565Z,8.20
2022-11-17T02:00:18.178Z,8.20
2022-11-17T02:02:45.191Z,8.20
2022-11-17T02:05:30.826Z,8.20
2022-11-17T02:08:01.843Z,8.30
2022-11-17T02:10:31.458Z,8.30
2022-11-17T02:12:59.946Z,8.20
2022-11-17T02:15:28.755Z,8.20
2022-11-17T02:17:57.239Z,8.30
2022-11-17T02:20:47.791Z,8.20
2022-11-17T02:23:32.702Z,8.20
2022-11-17T02:26:32.136Z,8.20
2022-11-17T02:29:13.018Z,8.20
2022-11-17T02:32:07.195Z,8.20
2022-11-17T02:35:09.030Z,8.10
2022-11-17T02:37:59.984Z,8.10
2022-11-17T02:40:32.948Z,8.00
2022-11-17T02:43:22.269Z,8.00
2022-11-17T02:46:03.469Z,7.90
2022-11-17T02:48:37.169Z,7.90
2022-11-17T02:51:06.319Z,7.90
2022-11-17T02:53:34.673Z,7.80
2022-11-17T02:56:02.395Z,7.80
2022-11-17T02:58:29.169Z,7.80
2022-11-17T03:01:25.305Z,7.80
2022-11-17T03:04:19.253Z,7.70
2022-11-17T03:07:04.092Z,7.80
2022-11-17T03:09:54.170Z,7.70
2022-11-17T03:12:24.366Z,7.70
2022-11-17T03:15:28.234Z,7.70
2022-11-17T03:18:19.649Z,7.70
2022-11-17T03:21:10.059Z,7.70
2022-11-17T03:24:04.092Z,7.60
2022-11-17T03:26:35.936Z,7.60
2022-11-17T03:29:06.680Z,7.60
2022-11-17T03:31:35.109Z,7.60
2022-11-17T03:34:05.279Z,7.60
2022-11-17T03:36:43.920Z,7.60
2022-11-17T03:39:23.740Z,7.50
2022-11-17T03:41:54.838Z,7.60
2022-11-17T03:44:24.825Z,7.60
2022-11-17T03:46:55.643Z,7.50
2022-11-17T03:49:46.327Z,7.50
2022-11-17T03:52:13.319Z,7.50
2022-11-17T03:54:41.512Z,7.50
2022-11-17T03:57:21.243Z,7.50
2022-11-17T03:59:55.914Z,7.50
2022-11-17T04:02:24.535Z,7.50
2022-11-17T04:05:06.301Z,7.40
2022-11-17T04:07:40.377Z,7.40
2022-11-17T04:10:12.767Z,7.40
2022-11-17T04:12:58.062Z,7.40
2022-11-17T04:15:43.739Z,7.40
2022-11-17T04:18:10.650Z,7.40
2022-11-17T04:20:37.410Z,7.40
2022-11-17T04:23:09.568Z,7.40
2022-11-17T04:25:56.313Z,7.30
2022-11-17T04:28:36.980Z,7.30
2022-11-17T04:31:12.623Z,7.30
2022-11-17T04:33:45.344Z,7.30
2022-11-17T04:36:14.567Z,7.20
2022-11-17T04:38:49.752Z,7.20
2022-11-17T04:41:36.463Z,7.20
2022-11-17T04:44:05.353Z,7.20
2022-11-17T04:46:34.110Z,7.20
2022-11-17T04:49:01.927Z,7.20
2022-11-17T04:51:30.232Z,7.10
2022-11-17T04:53:57.302Z,7.10
2022-11-17T04:56:25.099Z,7.10
2022-11-17T04:58:52.760Z,7.10
2022-11-17T05:01:20.956Z,7.10
2022-11-17T05:03:52.283Z,7.10
2022-11-17T05:06:22.437Z,7.00
2022-11-17T05:08:49.813Z,7.00
2022-11-17T05:11:36.729Z,7.00
2022-11-17T05:14:03.754Z,7.00
2022-11-17T05:16:49.143Z,7.00
2022-11-17T05:19:19.353Z,6.90
2022-11-17T05:21:46.153Z,6.90
2022-11-17T05:24:14.392Z,6.90
2022-11-17T05:26:42.676Z,6.90
2022-11-17T05:29:11.047Z,6.90
2022-11-17T05:31:38.310Z,6.90
2022-11-17T05:34:07.194Z,6.80
2022-11-17T05:36:34.621Z,6.90
2022-11-17T05:39:01.618Z,6.80
2022-11-17T05:41:28.992Z,6.80
2022-11-17T05:43:56.546Z,6.80
2022-11-17T05:46:23.676Z,6.80
2022-11-17T05:48:51.638Z,6.80
2022-11-17T05:51:20.562Z,6.80
2022-11-17T05:53:47.872Z,6.80
2022-11-17T05:56:35.559Z,6.80
2022-11-17T05:59:17.322Z,6.80
2022-11-17T06:01:48.921Z,6.70
2022-11-17T06:04:18.407Z,6.80
2022-11-17T06:06:46.541Z,6.70
2022-11-17T06:09:14.175Z,6.70
2022-11-17T06:11:41.142Z,6.70
2022-11-17T06:14:07.891Z,6.70
2022-11-17T06:16:41.723Z,6.70
2022-11-17T06:19:15.154Z,6.70
2022-11-17T06:22:09.888Z,6.70
2022-11-17T06:24:29.022Z,6.60
2022-11-17T06:26:55.874Z,6.60
2022-11-17T06:29:22.797Z,6.60
2022-11-17T06:31:49.722Z,6.60
2022-11-17T06:34:16.671Z,6.60
2022-11-17T06:36:43.482Z,6.60
2022-11-17T06:39:10.238Z,6.60
2022-11-17T06:41:37.180Z,6.60
2022-11-17T06:44:04.076Z,6.60
2022-11-17T06:46:37.956Z,6.60
2022-11-17T06:49:08.513Z,6.60
2022-11-17T06:51:38.016Z,6.60
2022-11-17T06:54:09.768Z,6.60
2022-11-17T06:56:36.688Z,6.60
2022-11-17T06:59:03.736Z,6.60
2022-11-17T07:01:30.597Z,6.60
2022-11-17T07:03:57.400Z,6.60
2022-11-17T07:06:24.300Z,6.60
2022-11-17T07:08:51.142Z,6.60
2022-11-17T07:11:18.204Z,6.60
2022-11-17T07:13:45.329Z,6.60
2022-11-17T07:16:23.243Z,6.60
2022-11-17T07:18:50.895Z,6.60
2022-11-17T07:21:18.174Z,6.60
2022-11-17T07:23:45.956Z,6.60
2022-11-17T07:26:13.111Z,6.60
2022-11-17T07:28:40.027Z,6.60
2022-11-17T07:31:09.081Z,6.60
2022-11-17T07:33:36.699Z,6.60
2022-11-17T07:36:05.868Z,6.60
2022-11-17T07:38:34.734Z,6.50
2022-11-17T07:41:02.597Z,6.50
2022-11-17T07:43:29.791Z,6.50
2022-11-17T07:45:57.074Z,6.50
2022-11-17T07:48:23.948Z,6.50
2022-11-17T07:50:50.848Z,6.50
2022-11-17T07:53:17.728Z,6.50
2022-11-17T07:55:44.851Z,6.50
2022-11-17T07:58:11.852Z,6.50
2022-11-17T08:00:38.812Z,6.50
2022-11-17T08:03:06.445Z,6.50
2022-11-17T08:05:42.932Z,6.50
2022-11-17T08:08:10.931Z,6.50
2022-11-17T08:10:37.820Z,6.60
2022-11-17T08:13:05.064Z,6.60
2022-11-17T08:15:32.261Z,6.60
2022-11-17T08:18:00.556Z,6.60
2022-11-17T08:20:29.430Z,6.60
2022-11-17T08:22:56.686Z,6.60
2022-11-17T08:25:25.822Z,6.60
2022-11-17T08:27:58.019Z,6.60
2022-11-17T08:30:26.189Z,6.60
2022-11-17T08:32:54.496Z,6.60
2022-11-17T08:35:24.212Z,6.60
2022-11-17T08:37:51.365Z,6.60
2022-11-17T08:40:18.711Z,6.60
2022-11-17T08:42:46.347Z,6.60
2022-11-17T08:45:13.902Z,6.60
2022-11-17T08:47:41.441Z,6.60
2022-11-17T08:50:09.221Z,6.60
2022-11-17T08:52:36.078Z,6.60
2022-11-17T08:55:05.612Z,6.60
2022-11-17T08:57:33.465Z,6.60
2022-11-17T09:00:01.158Z,6.60
2022-11-17T09:02:28.283Z,6.60
2022-11-17T09:04:55.138Z,6.60
2022-11-17T09:07:22.093Z,6.60
2022-11-17T09:09:49.305Z,6.60
2022-11-17T09:12:16.533Z,6.60
2022-11-17T09:14:43.842Z,6.60
2022-11-17T09:17:10.653Z,6.60
2022-11-17T09:19:37.454Z,6.70
2022-11-17T09:22:04.256Z,6.70
2022-11-17T09:24:31.007Z,6.70
2022-11-17T09:26:57.818Z,6.70
2022-11-17T09:29:24.811Z,6.70
2022-11-17T09:31:51.696Z,6.80
2022-11-17T09:34:18.687Z,6.80
2022-11-17T09:36:45.536Z,6.80
2022-11-17T09:39:12.633Z,6.80
2022-11-17T09:41:45.360Z,6.80
2022-11-17T09:44:31.169Z,6.80
2022-11-17T09:47:20.409Z,6.80
2022-11-17T09:50:02.768Z,6.80
2022-11-17T09:52:36.988Z,6.80
2022-11-17T09:55:18.421Z,6.80
2022-11-17T09:57:49.033Z,6.70
2022-11-17T10:00:19.941Z,6.80
2022-11-17T10:02:47.741Z,6.80
2022-11-17T10:05:16.202Z,6.80
2022-11-17T10:07:48.649Z,6.80
2022-11-17T10:10:25.582Z,6.80
2022-11-17T10:12:57.213Z,6.80
2022-11-17T10:15:30.250Z,6.80
2022-11-17T10:17:57.114Z,6.80
2022-11-17T10:20:23.967Z,6.80
2022-11-17T10:22:53.809Z,6.80
2022-11-17T10:25:36.831Z,6.80
2022-11-17T10:28:05.782Z,6.80
2022-11-17T10:30:32.901Z,6.80
2022-11-17T10:33:02.102Z,6.90
2022-11-17T10:35:30.707Z,6.90
2022-11-17T10:38:08.839Z,6.80
2022-11-17T10:40:39.045Z,6.90
2022-11-17T10:43:22.555Z,6.90
2022-11-17T10:45:58.531Z,6.90
2022-11-17T10:48:27.442Z,6.90
2022-11-17T10:51:21.571Z,7.00
2022-11-17T10:54:06.478Z,7.00
2022-11-17T10:56:46.635Z,7.00
2022-11-17T10:59:18.098Z,7.00
2022-11-17T11:01:47.648Z,7.00
2022-11-17T11:04:34.899Z,7.00
2022-11-17T11:07:14.090Z,7.00
2022-11-17T11:10:19.817Z,7.00
2022-11-17T11:13:08.891Z,7.10
2022-11-17T11:15:36.957Z,7.10
2022-11-17T11:18:15.608Z,7.10
2022-11-17T11:21:07.634Z,7.10
2022-11-17T11:23:43.515Z,7.20
2022-11-17T11:26:17.077Z,7.10
2022-11-17T11:29:03.121Z,7.10
2022-11-17T11:31:59.042Z,7.10
2022-11-17T11:34:32.519Z,7.20
2022-11-17T11:37:17.756Z,7.20
2022-11-17T11:40:10.800Z,7.20
2022-11-17T11:42:59.936Z,7.20
2022-11-17T11:45:51.943Z,7.30
2022-11-17T11:48:31.720Z,7.30
2022-11-17T11:51:05.194Z,7.30
2022-11-17T11:53:47.194Z,7.40
2022-11-17T11:56:17.812Z,7.40
2022-11-17T11:59:06.412Z,7.50
2022-11-17T12:01:50.322Z,7.50
2022-11-17T12:04:34.645Z,7.60
2022-11-17T12:07:24.702Z,7.60
2022-11-17T12:10:20.037Z,7.60
2022-11-17T12:12:47.132Z,7.70
2022-11-17T12:15:19.911Z,7.70
2022-11-17T12:17:59.017Z,7.70
2022-11-17T12:20:52.309Z,7.80
2022-11-17T12:23:34.116Z,7.90
2022-11-17T12:26:01.944Z,8.00
2022-11-17T12:28:40.806Z,8.00
2022-11-17T12:31:42.869Z,8.00
2022-11-17T12:34:18.665Z,8.10
2022-11-17T12:37:22.011Z,8.10
2022-11-17T12:40:00.456Z,8.20
2022-11-17T12:42:34.299Z,8.20
2022-11-17T12:45:06.861Z,8.30
2022-11-17T12:47:36.909Z,8.30
2022-11-17T12:50:19.016Z,8.40
2022-11-17T12:53:07.433Z,8.40
2022-11-17T12:55:55.401Z,8.40
2022-11-17T12:58:25.105Z,8.50
2022-11-17T13:01:10.162Z,8.50
2022-11-17T13:03:50.626Z,8.50
2022-11-17T13:06:34.917Z,8.60
2022-11-17T13:09:11.200Z,8.60
2022-11-17T13:11:38.653Z,8.60
2022-11-17T13:14:14.823Z,8.60
2022-11-17T13:16:48.529Z,8.60
2022-11-17T13:19:35.468Z,8.50
2022-11-17T13:22:24.774Z,8.50
2022-11-17T13:24:53.638Z,8.50
2022-11-17T13:27:26.608Z,8.50
2022-11-17T13:30:17.675Z,8.40
2022-11-17T13:32:44.636Z,8.40
2022-11-17T13:35:23.226Z,8.40
2022-11-17T13:38:12.270Z,8.40
2022-11-17T13:40:41.110Z,8.40
2022-11-17T13:43:14.045Z,8.30
2022-11-17T13:45:43.193Z,8.30
2022-11-17T13:48:32.097Z,8.30
2022-11-17T13:51:15.119Z,8.30
2022-11-17T13:53:49.841Z,8.30
2022-11-17T13:56:28.585Z,8.30
2022-11-17T13:58:56.415Z,8.30
2022-11-17T14:01:29.088Z,8.30
2022-11-17T14:04:23.189Z,8.30
2022-11-17T14:06:54.588Z,8.30
2022-11-17T14:09:22.432Z,8.40
2022-11-17T14:11:50.442Z,8.40
2022-11-17T14:14:22.897Z,8.40
2022-11-17T14:16:49.881Z,8.40
2022-11-17T14:19:16.721Z,8.40
2022-11-17T14:22:02.090Z,8.40
2022-11-17T14:24:30.001Z,8.40
2022-11-17T14:26:57.397Z,8.40
2022-11-17T14:29:24.814Z,8.40
2022-11-17T14:31:51.602Z,8.50
2022-11-17T14:34:18.487Z,8.40
2022-11-17T14:36:46.130Z,8.50
2022-11-17T14:39:15.749Z,8.40
2022-11-17T14:41:44.408Z,8.40
2022-11-17T14:44:11.645Z,8.40
2022-11-17T14:46:38.856Z,8.40
2022-11-17T14:49:05.875Z,8.30
2022-11-17T14:51:33.289Z,8.30
2022-11-17T14:54:00.206Z,8.30
2022-11-17T14:56:27.063Z,8.30
2022-11-17T14:58:56.759Z,8.30
2022-11-17T15:01:28.717Z,8.30
2022-11-17T15:03:57.870Z,8.30
2022-11-17T15:06:25.249Z,8.20
2022-11-17T15:08:57.363Z,8.30
2022-11-17T15:11:25.436Z,8.20
2022-11-17T15:13:52.317Z,8.20
2022-11-17T15:16:19.286Z,8.30
2022-11-17T15:18:49.113Z,8.20
2022-11-17T15:21:16.951Z,8.20
2022-11-17T15:23:44.817Z,8.20
2022-11-17T15:26:23.406Z,8.20
2022-11-17T15:28:50.279Z,8.20
2022-11-17T15:31:20.066Z,8.20
2022-11-17T15:33:48.154Z,8.20
2022-11-17T15:36:19.728Z,8.20
2022-11-17T15:38:47.765Z,8.20
2022-11-17T15:41:15.678Z,8.10
2022-11-17T15:43:44.184Z,8.10
2022-11-17T15:46:12.597Z,8.10
2022-11-17T15:48:44.429Z,8.10
2022-11-17T15:51:17.085Z,8.10
2022-11-17T15:53:46.497Z,8.00
2022-11-17T15:56:21.924Z,8.00
2022-11-17T15:58:54.263Z,8.00
2022-11-17T16:01:24.876Z,8.00
2022-11-17T16:03:53.306Z,7.90
2022-11-17T16:06:20.126Z,7.90
2022-11-17T16:08:46.965Z,7.90
2022-11-17T16:11:14.072Z,7.90
2022-11-17T16:13:40.951Z,7.90
2022-11-17T16:16:12.324Z,7.90
2022-11-17T16:18:39.936Z,7.90
2022-11-17T16:21:10.013Z,7.90
2022-11-17T16:23:41.248Z,7.90
2022-11-17T16:26:10.356Z,7.90
2022-11-17T16:28:37.887Z,7.90
2022-11-17T16:31:35.547Z,7.90
2022-11-17T16:34:05.901Z,7.90
2022-11-17T16:36:36.851Z,7.90
2022-11-17T16:39:06.090Z,7.90
2022-11-17T16:41:38.406Z,7.90
2022-11-17T16:44:11.769Z,7.90
2022-11-17T16:46:41.724Z,7.90
2022-11-17T16:49:12.161Z,8.00
2022-11-17T16:51:39.387Z,7.90
2022-11-17T16:54:11.051Z,8.00
2022-11-17T16:56:37.895Z,8.00
2022-11-17T16:59:05.126Z,8.00
2022-11-17T17:01:35.430Z,8.00
2022-11-17T17:04:07.524Z,8.00
2022-11-17T17:06:35.342Z,8.00
2022-11-17T17:09:05.426Z,8.00
2022-11-17T17:11:33.896Z,8.00
2022-11-17T17:14:03.160Z,8.00
2022-11-17T17:16:31.549Z,8.00
2022-11-17T17:19:04.304Z,8.00
2022-11-17T17:21:32.860Z,8.00
2022-11-17T17:24:00.006Z,8.00
2022-11-17T17:26:29.077Z,8.00
2022-11-17T17:28:58.674Z,8.00
2022-11-17T17:31:28.797Z,8.00
2022-11-17T17:33:56.483Z,7.90
2022-11-17T17:36:25.055Z,8.00
2022-11-17T17:38:56.207Z,8.00
2022-11-17T17:41:29.322Z,7.90
2022-11-17T17:44:04.908Z,7.90
2022-11-17T17:46:34.640Z,7.90
2022-11-17T17:49:02.193Z,7.80
2022-11-17T17:51:29.893Z,7.90
2022-11-17T17:54:00.666Z,7.80
2022-11-17T17:56:28.072Z,7.80
2022-11-17T17:58:55.758Z,7.80
2022-11-17T18:01:26.752Z,7.70
2022-11-17T18:04:01.230Z,7.70
2022-11-17T18:06:28.539Z,7.70
2022-11-17T18:08:56.352Z,7.70
2022-11-17T18:11:23.406Z,7.70
2022-11-17T18:13:52.567Z,7.70
2022-11-17T18:16:24.867Z,7.70
2022-11-17T18:19:00.628Z,7.70
2022-11-17T18:21:28.692Z,7.60
2022-11-17T18:23:57.249Z,7.60
2022-11-17T18:26:26.918Z,7.60
2022-11-17T18:28:56.695Z,7.60
2022-11-17T18:31:26.456Z,7.60
2022-11-17T18:34:05.169Z,7.60
2022-11-17T18:36:32.465Z,7.60
2022-11-17T18:38:59.355Z,7.60
2022-11-17T18:41:27.615Z,7.60
2022-11-17T18:43:55.089Z,7.60
2022-11-17T18:46:23.560Z,7.50
2022-11-17T18:48:52.165Z,7.50
2022-11-17T18:51:25.037Z,7.50
2022-11-17T18:53:54.267Z,7.50
2022-11-17T18:56:25.002Z,7.50
2022-11-17T18:58:52.578Z,7.50
2022-11-17T19:01:25.052Z,7.50
2022-11-17T19:03:53.553Z,7.40
2022-11-17T19:06:22.843Z,7.40
2022-11-17T19:08:49.995Z,7.40
2022-11-17T19:11:18.507Z,7.40
2022-11-17T19:13:46.192Z,7.40
2022-11-17T19:16:21.824Z,7.40
2022-11-17T19:18:50.777Z,7.40
2022-11-17T19:21:26.656Z,7.40
2022-11-17T19:23:56.628Z,7.30
2022-11-17T19:26:25.883Z,7.30
2022-11-17T19:29:01.554Z,7.30
2022-11-17T19:31:30.810Z,7.30
2022-11-17T19:33:58.643Z,7.30
2022-11-17T19:36:29.484Z,7.30
2022-11-17T19:38:58.287Z,7.20
2022-11-17T19:41:28.117Z,7.20
2022-11-17T19:43:56.703Z,7.20
2022-11-17T19:46:24.999Z,7.20
2022-11-17T19:48:52.358Z,7.20
2022-11-17T19:51:21.846Z,7.20
2022-11-17T19:53:50.221Z,7.20
2022-11-17T19:56:17.366Z,7.20
2022-11-17T19:58:45.067Z,7.20
2022-11-17T20:01:14.927Z,7.20
2022-11-17T20:03:42.576Z,7.20
2022-11-17T20:06:11.364Z,7.20
2022-11-17T20:08:38.701Z,7.20
2022-11-17T20:11:14.058Z,7.20
2022-11-17T20:13:44.108Z,7.20
2022-11-17T20:16:13.712Z,7.20
2022-11-17T20:18:42.252Z,7.20
2022-11-17T20:21:10.354Z,7.20
2022-11-17T20:23:38.831Z,7.20
2022-11-17T20:26:07.870Z,7.20
2022-11-17T20:28:37.530Z,7.20
2022-11-17T20:31:16.218Z,7.20
2022-11-17T20:33:43.635Z,7.10
2022-11-17T20:36:13.389Z,7.10
2022-11-17T20:38:40.316Z,7.10
2022-11-17T20:41:07.697Z,7.00
2022-11-17T20:43:35.341Z,7.00
2022-11-17T20:46:03.456Z,7.00
2022-11-17T20:48:31.619Z,7.00
2022-11-17T20:51:11.372Z,7.00
2022-11-17T20:53:38.879Z,7.00
2022-11-17T20:56:07.769Z,7.00
2022-11-17T20:58:35.247Z,7.00
2022-11-17T21:01:14.737Z,7.00
2022-11-17T21:03:42.454Z,7.00
2022-11-17T21:06:09.774Z,7.00
2022-11-17T21:08:38.588Z,7.00
2022-11-17T21:11:07.905Z,6.90
2022-11-17T21:13:36.368Z,6.90
2022-11-17T21:16:04.153Z,6.80
2022-11-17T21:18:31.246Z,6.80
2022-11-17T21:21:01.610Z,6.80
2022-11-17T21:23:28.700Z,6.80
2022-11-17T21:25:55.669Z,6.70
2022-11-17T21:28:22.661Z,6.70
2022-11-17T21:30:49.520Z,6.70
2022-11-17T21:33:16.384Z,6.70
2022-11-17T21:35:43.197Z,6.70
2022-11-17T21:38:11.130Z,6.70
2022-11-17T21:40:38.011Z,6.70
2022-11-17T21:43:05.162Z,6.70
2022-11-17T21:45:33.067Z,6.70
2022-11-17T21:47:59.867Z,6.60
2022-11-17T21:50:27.002Z,6.60
2022-11-17T21:52:53.883Z,6.60
2022-11-17T21:55:20.691Z,6.70
2022-11-17T21:57:50.742Z,6.70
2022-11-17T22:00:18.035Z,6.70
2022-11-17T22:02:44.935Z,6.70
2022-11-17T22:05:11.774Z,6.70
2022-11-17T22:07:38.635Z,6.70
2022-11-17T22:10:05.939Z,6.80
2022-11-17T22:12:32.861Z,6.70
2022-11-17T22:14:59.679Z,6.80
2022-11-17T22:17:26.509Z,6.70
2022-11-17T22:19:53.327Z,6.80
2022-11-17T22:22:20.110Z,6.80
2022-11-17T22:24:49.773Z,6.80
2022-11-17T22:27:17.141Z,6.80
2022-11-17T22:29:44.065Z,6.80
2022-11-17T22:32:11.061Z,6.80
2022-11-17T22:34:37.900Z,6.80
2022-11-17T22:37:04.842Z,6.70
2022-11-17T22:39:31.697Z,6.70
2022-11-17T22:41:58.597Z,6.80
2022-11-17T22:44:25.405Z,6.80
2022-11-17T22:46:52.410Z,6.80
2022-11-17T22:49:19.436Z,6.70
2022-11-17T22:52:04.476Z,6.70
2022-11-17T22:54:31.928Z,6.70
2022-11-17T22:56:59.101Z,6.70
2022-11-17T22:59:30.077Z,6.70
2022-11-17T23:01:56.928Z,6.70
2022-11-17T23:04:23.966Z,6.70
2022-11-17T23:06:50.749Z,6.70
2022-11-17T23:09:17.882Z,6.70
2022-11-17T23:11:45.123Z,6.70
2022-11-17T23:14:13.696Z,6.70
2022-11-17T23:16:40.945Z,6.80
2022-11-17T23:19:11.003Z,6.80
2022-11-17T23:21:37.848Z,6.70
2022-11-17T23:24:04.997Z,6.80
2022-11-17T23:26:31.786Z,6.80
2022-11-17T23:28:58.877Z,6.80
2022-11-17T23:31:27.890Z,6.80
2022-11-17T23:33:54.825Z,6.80
2022-11-17T23:36:22.494Z,6.80
2022-11-17T23:38:50.443Z,6.80
2022-11-17T23:41:19.464Z,6.90
2022-11-17T23:43:48.888Z,6.90
2022-11-17T23:46:18.308Z,6.90
2022-11-17T23:48:45.444Z,6.90
2022-11-17T23:51:17.863Z,6.90
2022-11-17T23:53:46.228Z,6.90
2022-11-17T23:56:13.853Z,6.90
2022-11-17T23:58:40.828Z,6.90
